createdAt,value
2018-03-29T00:00:03.573Z,94309.71
2018-03-29T00:02:32.026Z,94311.44
2018-03-29T00:05:00.449Z,94281.09
2018-03-29T00:07:28.837Z,94309.97
2018-03-29T00:09:57.285Z,94304.93
2018-03-29T00:12:25.833Z,94301.39
2018-03-29T00:14:54.399Z,94304.53
2018-03-29T00:17:22.860Z,94300.27
2018-03-29T00:19:51.256Z,94297.36
2018-03-29T00:22:19.690Z,94288.76
2018-03-29T00:24:48.088Z,94278.35
2018-03-29T00:27:16.578Z,94296.88
2018-03-29T00:29:45.011Z,94293.90
2018-03-29T00:32:13.473Z,94291.63
2018-03-29T00:34:41.957Z,94299.27
2018-03-29T00:37:10.421Z,94270.24
2018-03-29T00:39:38.930Z,94289.70
2018-03-29T00:42:07.473Z,94283.39
2018-03-29T00:44:35.901Z,94292.34
2018-03-29T00:47:04.356Z,94289.72
2018-03-29T00:49:32.756Z,94225.19
2018-03-29T00:52:01.189Z,94285.64
2018-03-29T00:54:30.700Z,94280.38
2018-03-29T00:56:59.166Z,94279.33
2018-03-29T00:59:27.621Z,94282.77
2018-03-29T01:01:56.030Z,94287.06
2018-03-29T01:04:24.505Z,94280.84
2018-03-29T01:06:52.961Z,94285.69
2018-03-29T01:09:21.358Z,94225.50
2018-03-29T01:11:49.833Z,94276.83
2018-03-29T01:14:18.239Z,94259.22
2018-03-29T01:16:46.669Z,94268.84
2018-03-29T01:19:15.278Z,94263.72
2018-03-29T01:21:43.693Z,94263.84
2018-03-29T01:24:12.148Z,94249.19
2018-03-29T01:26:40.601Z,94247.88
2018-03-29T01:29:08.985Z,94219.45
2018-03-29T01:31:37.421Z,94235.67
2018-03-29T01:34:05.929Z,94181.56
2018-03-29T01:36:34.563Z,94260.67
2018-03-29T01:39:03.072Z,94257.42
2018-03-29T01:41:31.564Z,94248.38
2018-03-29T01:43:59.953Z,94249.09
2018-03-29T01:46:28.368Z,94253.83
2018-03-29T01:48:56.861Z,94259.95
2018-03-29T01:51:25.310Z,94260.04
2018-03-29T01:53:53.753Z,94258.67
2018-03-29T01:56:22.133Z,94259.93
2018-03-29T01:58:50.607Z,94256.39
2018-03-29T02:01:19.036Z,94259.52
2018-03-29T02:03:47.436Z,94254.66
2018-03-29T02:06:15.876Z,94255.79
2018-03-29T02:08:44.277Z,94261.76
2018-03-29T02:11:12.725Z,94271.61
2018-03-29T02:13:41.172Z,94244.43
2018-03-29T02:16:09.609Z,94268.57
2018-03-29T02:18:38.119Z,94259.05
2018-03-29T02:21:06.532Z,94258.67
2018-03-29T02:23:34.961Z,94254.63
2018-03-29T02:26:03.362Z,94253.61
2018-03-29T02:28:31.828Z,94262.02
2018-03-29T02:31:00.217Z,94270.56
2018-03-29T02:33:28.632Z,94253.50
2018-03-29T02:35:57.086Z,94270.97
2018-03-29T02:38:25.523Z,94270.33
2018-03-29T02:40:53.990Z,94273.53
2018-03-29T02:43:22.408Z,94272.44
2018-03-29T02:45:51.207Z,94274.98
2018-03-29T02:48:19.647Z,94280.47
2018-03-29T02:50:48.049Z,94281.95
2018-03-29T02:53:16.473Z,94272.26
2018-03-29T02:55:44.970Z,94276.67
2018-03-29T02:58:13.422Z,94281.97
2018-03-29T03:00:42.013Z,94281.88
2018-03-29T03:03:10.471Z,94292.23
2018-03-29T03:05:38.892Z,94287.89
2018-03-29T03:08:07.364Z,94283.89
2018-03-29T03:10:35.833Z,94287.58
2018-03-29T03:13:04.314Z,94265.38
2018-03-29T03:15:32.716Z,94280.62
2018-03-29T03:18:01.136Z,94274.57
2018-03-29T03:20:29.533Z,94268.09
2018-03-29T03:22:58.002Z,94248.80
2018-03-29T03:25:26.389Z,94274.48
2018-03-29T03:27:54.892Z,94278.61
2018-03-29T03:30:23.286Z,94276.17
2018-03-29T03:32:51.789Z,94278.09
2018-03-29T03:35:20.221Z,94273.38
2018-03-29T03:37:48.805Z,94271.64
2018-03-29T03:40:17.344Z,94275.20
2018-03-29T03:42:45.749Z,94278.33
2018-03-29T03:45:14.192Z,94276.36
2018-03-29T03:47:42.781Z,94274.91
2018-03-29T03:50:11.220Z,94269.05
2018-03-29T03:52:40.691Z,94250.41
2018-03-29T03:55:10.482Z,94278.91
2018-03-29T03:57:40.205Z,94280.97
2018-03-29T04:00:09.961Z,94279.77
2018-03-29T04:02:39.680Z,94244.03
2018-03-29T04:05:09.436Z,94286.84
2018-03-29T04:07:39.155Z,94291.28
2018-03-29T04:10:08.911Z,94284.36
2018-03-29T04:12:38.636Z,94266.92
2018-03-29T04:15:08.398Z,94293.39
2018-03-29T04:17:38.114Z,94247.59
2018-03-29T04:20:08.116Z,94299.10
2018-03-29T04:22:38.123Z,94304.31
2018-03-29T04:25:07.864Z,94246.48
2018-03-29T04:27:37.640Z,94329.26
2018-03-29T04:30:07.351Z,94303.66
2018-03-29T04:32:37.196Z,94315.09
2018-03-29T04:35:06.934Z,94290.38
2018-03-29T04:37:36.761Z,94306.55
2018-03-29T04:40:06.485Z,94291.41
2018-03-29T04:42:36.261Z,94312.94
2018-03-29T04:45:06.051Z,94313.63
2018-03-29T04:47:35.893Z,94309.88
2018-03-29T04:50:05.684Z,94308.80
2018-03-29T04:52:35.500Z,94312.05
2018-03-29T04:55:05.321Z,94306.89
2018-03-29T04:57:35.359Z,94306.89
2018-03-29T05:00:04.495Z,94289.34
2018-03-29T05:02:34.537Z,94307.78
2018-03-29T05:05:03.925Z,94312.59
2018-03-29T05:07:33.937Z,94318.08
2018-03-29T05:10:03.852Z,94317.02
2018-03-29T05:12:33.763Z,94319.00
2018-03-29T05:15:03.500Z,94320.33
2018-03-29T05:17:33.290Z,94321.86
2018-03-29T05:20:03.090Z,94326.94
2018-03-29T05:22:32.892Z,94336.37
2018-03-29T05:25:02.673Z,94343.86
2018-03-29T05:27:32.409Z,94352.51
2018-03-29T05:30:02.165Z,94373.75
2018-03-29T05:32:31.964Z,94359.45
2018-03-29T05:35:01.801Z,94341.90
2018-03-29T05:37:31.590Z,94361.14
2018-03-29T05:40:01.357Z,94360.95
2018-03-29T05:42:30.974Z,94370.98
2018-03-29T05:45:00.801Z,94370.08
2018-03-29T05:47:30.709Z,94373.60
2018-03-29T05:50:00.426Z,94375.44
2018-03-29T05:52:30.233Z,94376.35
2018-03-29T05:54:59.996Z,94381.70
2018-03-29T05:57:29.853Z,94388.52
2018-03-29T05:59:59.606Z,94385.75
2018-03-29T06:02:29.333Z,94369.85
2018-03-29T06:04:59.085Z,94392.52
2018-03-29T06:07:28.829Z,94386.16
2018-03-29T06:09:58.561Z,94382.64
2018-03-29T06:12:28.310Z,94385.34
2018-03-29T06:14:57.837Z,94387.25
2018-03-29T06:17:27.593Z,94383.67
2018-03-29T06:19:57.308Z,94381.42
2018-03-29T06:22:27.077Z,94322.25
2018-03-29T06:24:56.807Z,94386.31
2018-03-29T06:27:26.578Z,94393.11
2018-03-29T06:29:56.486Z,94395.95
2018-03-29T06:32:26.221Z,94391.04
2018-03-29T06:34:55.972Z,94389.01
2018-03-29T06:37:25.730Z,94394.62
2018-03-29T06:39:55.492Z,94401.45
2018-03-29T06:42:25.206Z,94402.59
2018-03-29T06:44:55.007Z,94403.97
2018-03-29T06:47:24.760Z,94399.14
2018-03-29T06:49:54.536Z,94379.55
2018-03-29T06:52:24.257Z,94402.35
2018-03-29T06:54:54.132Z,94396.56
2018-03-29T06:57:24.053Z,94409.51
2018-03-29T06:59:53.804Z,94408.39
2018-03-29T07:02:23.539Z,94378.75
2018-03-29T07:04:53.377Z,94413.94
2018-03-29T07:07:23.105Z,94419.39
2018-03-29T07:09:52.853Z,94425.14
2018-03-29T07:12:22.618Z,94425.86
2018-03-29T07:14:52.383Z,94434.02
2018-03-29T07:17:22.146Z,94433.89
2018-03-29T07:19:51.909Z,94458.74
2018-03-29T07:22:21.694Z,94440.76
2018-03-29T07:24:51.458Z,94446.10
2018-03-29T07:27:21.217Z,94451.70
2018-03-29T07:29:50.969Z,94447.98
2018-03-29T07:32:20.729Z,94444.79
2018-03-29T07:34:50.245Z,94448.32
2018-03-29T07:37:20.011Z,94448.88
2018-03-29T07:39:49.737Z,94446.38
2018-03-29T07:42:19.500Z,94445.02
2018-03-29T07:44:48.984Z,94444.22
2018-03-29T07:47:18.697Z,94414.73
2018-03-29T07:49:48.463Z,94454.22
2018-03-29T07:52:18.243Z,94461.00
2018-03-29T07:54:47.999Z,94462.67
2018-03-29T07:57:17.901Z,94477.61
2018-03-29T07:59:47.655Z,94464.01
2018-03-29T08:02:17.409Z,94463.54
2018-03-29T08:04:47.129Z,94467.77
2018-03-29T08:07:16.890Z,94448.12
2018-03-29T08:09:46.614Z,94462.71
2018-03-29T08:12:16.460Z,94461.08
2018-03-29T08:14:46.193Z,94456.97
2018-03-29T08:17:15.958Z,94462.19
2018-03-29T08:19:45.679Z,94459.52
2018-03-29T08:22:15.512Z,94456.31
2018-03-29T08:24:45.274Z,94460.02
2018-03-29T08:27:14.992Z,94452.76
2018-03-29T08:29:44.772Z,94384.22
2018-03-29T08:32:14.524Z,94462.80
2018-03-29T08:34:44.447Z,94457.36
2018-03-29T08:37:14.200Z,94459.27
2018-03-29T08:39:44.121Z,94464.00
2018-03-29T08:42:13.841Z,94445.86
2018-03-29T08:44:43.603Z,94461.35
2018-03-29T08:47:13.358Z,94458.63
2018-03-29T08:49:43.074Z,94440.94
2018-03-29T08:52:12.791Z,94458.71
2018-03-29T08:54:42.508Z,94463.67
2018-03-29T08:57:12.298Z,94466.39
2018-03-29T08:59:41.951Z,94444.01
2018-03-29T09:02:11.763Z,94459.83
2018-03-29T09:04:41.547Z,94456.58
2018-03-29T09:07:11.268Z,94454.34
2018-03-29T09:09:41.016Z,94456.95
2018-03-29T09:12:10.759Z,94456.62
2018-03-29T09:14:40.537Z,94456.73
2018-03-29T09:17:10.265Z,94453.22
2018-03-29T09:19:40.080Z,94456.17
2018-03-29T09:22:09.835Z,94450.67
2018-03-29T09:24:40.858Z,94449.67
2018-03-29T09:27:10.670Z,94449.09
2018-03-29T09:29:40.432Z,94454.33
2018-03-29T09:32:10.181Z,94443.20
2018-03-29T09:34:39.960Z,94438.95
2018-03-29T09:37:09.712Z,94453.11
2018-03-29T09:39:39.581Z,94436.37
2018-03-29T09:42:09.416Z,94440.27
2018-03-29T09:44:39.216Z,94439.59
2018-03-29T09:47:08.954Z,94436.33
2018-03-29T09:49:38.903Z,94419.65
2018-03-29T09:52:08.625Z,94422.06
2018-03-29T09:54:38.397Z,94437.02
2018-03-29T09:57:08.140Z,94428.95
2018-03-29T09:59:37.921Z,94422.75
2018-03-29T10:02:13.122Z,94406.37
2018-03-29T10:04:42.700Z,94423.84
2018-03-29T10:07:18.010Z,94419.98
2018-03-29T10:09:47.925Z,94421.13
2018-03-29T10:12:17.704Z,94418.12
2018-03-29T10:14:47.484Z,94418.33
2018-03-29T10:17:17.200Z,94409.65
2018-03-29T10:19:47.002Z,94417.53
2018-03-29T10:22:16.829Z,94417.52
2018-03-29T10:24:46.593Z,94424.24
2018-03-29T10:27:16.322Z,94414.86
2018-03-29T10:29:46.150Z,94421.92
2018-03-29T10:32:15.958Z,94413.05
2018-03-29T10:34:45.727Z,94405.05
2018-03-29T10:37:15.496Z,94408.02
2018-03-29T10:39:45.277Z,94402.67
2018-03-29T10:42:14.773Z,94405.87
2018-03-29T10:44:44.517Z,94399.45
2018-03-29T10:47:14.236Z,94404.56
2018-03-29T10:49:43.997Z,94400.83
2018-03-29T10:52:13.769Z,94402.27
2018-03-29T10:54:43.491Z,94393.44
2018-03-29T10:57:13.253Z,94393.52
2018-03-29T10:59:42.988Z,94386.03
2018-03-29T11:02:12.754Z,94378.85
2018-03-29T11:04:42.481Z,94388.20
2018-03-29T11:07:12.253Z,94377.29
2018-03-29T11:09:42.001Z,94380.59
2018-03-29T11:12:14.588Z,94392.25
2018-03-29T11:14:44.333Z,94380.23
2018-03-29T11:17:14.097Z,94374.20
2018-03-29T11:19:43.828Z,94357.61
2018-03-29T11:22:13.609Z,94377.79
2018-03-29T11:24:43.377Z,94378.94
2018-03-29T11:27:13.108Z,94373.98
2018-03-29T11:29:42.882Z,94370.14
2018-03-29T11:32:12.652Z,94365.79
2018-03-29T11:34:42.445Z,94366.43
2018-03-29T11:37:12.218Z,94357.84
2018-03-29T11:39:42.096Z,94345.78
2018-03-29T11:42:11.917Z,94358.13
2018-03-29T11:44:41.633Z,94350.98
2018-03-29T11:47:11.409Z,94345.41
2018-03-29T11:49:40.910Z,94344.38
2018-03-29T11:52:10.685Z,94345.95
2018-03-29T11:54:40.429Z,94349.05
2018-03-29T11:57:10.222Z,94342.20
2018-03-29T11:59:39.952Z,94335.38
2018-03-29T12:02:09.716Z,94334.10
2018-03-29T12:04:39.441Z,94334.89
2018-03-29T12:07:09.205Z,94320.20
2018-03-29T12:09:38.928Z,94320.84
2018-03-29T12:12:08.685Z,94321.47
2018-03-29T12:14:38.468Z,94312.90
2018-03-29T12:17:08.186Z,94309.68
2018-03-29T12:19:37.964Z,94305.27
2018-03-29T12:22:07.731Z,94303.95
2018-03-29T12:24:37.506Z,94303.23
2018-03-29T12:27:07.228Z,94304.03
2018-03-29T12:29:36.998Z,94296.49
2018-03-29T12:32:06.760Z,94295.52
2018-03-29T12:34:36.580Z,94278.51
2018-03-29T12:37:06.321Z,94286.67
2018-03-29T12:39:36.180Z,94285.55
2018-03-29T12:42:05.937Z,94288.27
2018-03-29T12:44:35.680Z,94280.48
2018-03-29T12:47:05.631Z,94272.13
2018-03-29T12:49:35.374Z,94272.30
2018-03-29T12:52:05.164Z,94274.13
2018-03-29T12:54:46.083Z,94276.15
2018-03-29T12:57:26.760Z,94257.88
2018-03-29T12:59:56.210Z,94262.17
2018-03-29T13:02:26.549Z,94265.41
2018-03-29T13:04:56.892Z,94265.41
2018-03-29T13:07:27.224Z,94249.42
2018-03-29T13:09:57.583Z,94259.55
2018-03-29T13:12:27.941Z,94268.09
2018-03-29T13:14:58.264Z,94265.00
2018-03-29T13:17:28.644Z,94257.98
2018-03-29T13:19:59.036Z,94256.80
2018-03-29T13:22:29.433Z,94256.59
2018-03-29T13:24:59.787Z,94256.53
2018-03-29T13:27:29.910Z,94255.42
2018-03-29T13:30:00.291Z,94256.67
2018-03-29T13:32:30.594Z,94251.19
2018-03-29T13:35:00.982Z,94248.92
2018-03-29T13:37:31.313Z,94256.36
2018-03-29T13:40:01.089Z,94246.19
2018-03-29T13:42:31.432Z,94240.69
2018-03-29T13:45:01.771Z,94227.56
2018-03-29T13:47:32.349Z,94236.21
2018-03-29T13:50:02.669Z,94239.49
2018-03-29T13:52:32.965Z,94230.92
2018-03-29T13:55:03.321Z,94228.48
2018-03-29T13:57:33.754Z,94237.77
2018-03-29T14:00:03.824Z,94230.35
2018-03-29T14:02:33.933Z,94233.47
2018-03-29T14:05:04.341Z,94224.09
2018-03-29T14:07:34.712Z,94220.72
2018-03-29T14:10:04.865Z,94225.94
2018-03-29T14:12:35.190Z,94220.15
2018-03-29T14:15:05.551Z,94217.30
2018-03-29T14:17:35.902Z,94211.05
2018-03-29T14:20:05.676Z,94220.22
2018-03-29T14:22:35.465Z,94215.62
2018-03-29T14:25:05.786Z,94219.69
2018-03-29T14:27:36.137Z,94192.43
2018-03-29T14:30:06.542Z,94197.23
2018-03-29T14:32:36.875Z,94210.94
2018-03-29T14:35:07.292Z,94213.68
2018-03-29T14:37:37.668Z,94216.56
2018-03-29T14:40:08.008Z,94205.38
2018-03-29T14:42:38.724Z,94204.56
2018-03-29T14:45:09.251Z,94209.85
2018-03-29T14:47:39.584Z,94196.82
2018-03-29T14:50:09.929Z,94192.00
2018-03-29T14:52:40.230Z,94205.05
2018-03-29T14:55:10.625Z,94204.69
2018-03-29T14:57:41.209Z,94206.83
2018-03-29T15:00:11.547Z,94204.50
2018-03-29T15:02:42.060Z,94213.91
2018-03-29T15:05:12.376Z,94209.03
2018-03-29T15:07:42.724Z,94210.95
2018-03-29T15:10:12.511Z,94222.15
2018-03-29T15:12:42.279Z,94227.39
2018-03-29T15:15:12.003Z,94228.36
2018-03-29T15:17:41.766Z,94225.16
2018-03-29T15:20:11.529Z,94224.95
2018-03-29T15:22:41.314Z,94222.20
2018-03-29T15:25:11.236Z,94217.39
2018-03-29T15:27:41.005Z,94218.06
2018-03-29T15:30:10.738Z,94218.61
2018-03-29T15:32:40.523Z,94218.47
2018-03-29T15:35:10.466Z,94226.70
2018-03-29T15:37:40.238Z,94226.23
2018-03-29T15:40:10.000Z,94225.69
2018-03-29T15:42:39.743Z,94208.16
2018-03-29T15:45:09.513Z,94232.66
2018-03-29T15:47:39.492Z,94240.70
2018-03-29T15:50:09.344Z,94230.13
2018-03-29T15:52:39.079Z,94234.66
2018-03-29T15:55:08.836Z,94239.00
2018-03-29T15:57:38.600Z,94248.08
2018-03-29T16:00:08.316Z,94228.73
2018-03-29T16:02:38.124Z,94249.56
2018-03-29T16:05:07.860Z,94250.28
2018-03-29T16:07:37.853Z,94254.31
2018-03-29T16:10:07.570Z,94257.69
2018-03-29T16:12:37.369Z,94260.31
2018-03-29T16:15:07.439Z,94253.87
2018-03-29T16:17:37.177Z,94252.25
2018-03-29T16:20:06.968Z,94248.02
2018-03-29T16:22:36.696Z,94248.02
2018-03-29T16:25:06.466Z,94249.80
2018-03-29T16:27:36.230Z,94254.30
2018-03-29T16:30:05.660Z,94254.98
2018-03-29T16:32:35.372Z,94260.91
2018-03-29T16:35:05.161Z,94260.69
2018-03-29T16:37:34.890Z,94263.48
2018-03-29T16:40:04.695Z,94239.61
2018-03-29T16:42:34.211Z,94258.41
2018-03-29T16:45:03.970Z,94252.77
2018-03-29T16:47:33.752Z,94257.59
2018-03-29T16:50:03.549Z,94243.05
2018-03-29T16:52:33.308Z,94274.27
2018-03-29T16:55:03.097Z,94275.66
2018-03-29T16:57:32.889Z,94269.48
2018-03-29T17:00:02.727Z,94272.73
2018-03-29T17:02:32.269Z,94273.29
2018-03-29T17:05:02.053Z,94275.68
2018-03-29T17:07:31.774Z,94280.91
2018-03-29T17:10:01.540Z,94280.59
2018-03-29T17:12:31.293Z,94288.03
2018-03-29T17:15:01.048Z,94291.59
2018-03-29T17:17:30.772Z,94296.19
2018-03-29T17:20:00.548Z,94301.63
2018-03-29T17:22:30.274Z,94278.98
2018-03-29T17:25:00.033Z,94309.67
2018-03-29T17:27:29.932Z,94315.36
2018-03-29T17:29:59.696Z,94311.83
2018-03-29T17:32:29.478Z,94312.45
2018-03-29T17:34:59.193Z,94323.99
2018-03-29T17:37:28.622Z,94323.70
2018-03-29T17:39:58.346Z,94330.25
2018-03-29T17:42:28.112Z,94331.08
2018-03-29T17:44:57.832Z,94338.44
2018-03-29T17:47:27.601Z,94341.02
2018-03-29T17:49:57.373Z,94343.30
2018-03-29T17:52:27.310Z,94349.31
2018-03-29T17:54:57.190Z,94353.28
2018-03-29T17:57:27.062Z,94353.97
2018-03-29T17:59:56.851Z,94359.86
2018-03-29T18:02:26.612Z,94357.95
2018-03-29T18:04:56.348Z,94364.45
2018-03-29T18:07:26.109Z,94372.25
2018-03-29T18:09:55.928Z,94376.89
2018-03-29T18:12:25.694Z,94375.11
2018-03-29T18:14:55.421Z,94377.74
2018-03-29T18:17:25.268Z,94382.11
2018-03-29T18:19:55.077Z,94388.32
2018-03-29T18:22:24.799Z,94390.81
2018-03-29T18:24:54.557Z,94394.00
2018-03-29T18:27:24.336Z,94397.20
2018-03-29T18:29:54.151Z,94399.23
2018-03-29T18:32:23.944Z,94409.97
2018-03-29T18:34:53.785Z,94405.45
2018-03-29T18:37:23.517Z,94408.95
2018-03-29T18:39:53.249Z,94420.36
2018-03-29T18:42:22.960Z,94428.87
2018-03-29T18:44:52.714Z,94429.92
2018-03-29T18:47:22.459Z,94431.99
2018-03-29T18:49:52.204Z,94417.77
2018-03-29T18:52:21.952Z,94426.80
2018-03-29T18:54:51.705Z,94430.32
2018-03-29T18:57:21.468Z,94425.41
2018-03-29T18:59:50.948Z,94429.77
2018-03-29T19:02:20.696Z,94429.39
2018-03-29T19:04:50.460Z,94426.86
2018-03-29T19:07:20.240Z,94402.58
2018-03-29T19:09:50.147Z,94416.44
2018-03-29T19:12:19.941Z,94418.02
2018-03-29T19:14:49.706Z,94424.94
2018-03-29T19:17:19.425Z,94438.63
2018-03-29T19:19:49.204Z,94437.64
2018-03-29T19:22:19.083Z,94439.09
2018-03-29T19:24:48.850Z,94438.38
2018-03-29T19:27:18.681Z,94440.54
2018-03-29T19:29:48.454Z,94444.05
2018-03-29T19:32:18.195Z,94446.53
2018-03-29T19:34:47.959Z,94445.94
2018-03-29T19:37:17.717Z,94450.21
2018-03-29T19:39:47.613Z,94452.86
2018-03-29T19:42:17.381Z,94441.14
2018-03-29T19:44:47.088Z,94456.27
2018-03-29T19:47:16.850Z,94467.08
2018-03-29T19:49:46.566Z,94463.52
2018-03-29T19:52:16.319Z,94473.08
2018-03-29T19:54:46.053Z,94475.18
2018-03-29T19:57:15.841Z,94485.24
2018-03-29T19:59:45.587Z,94487.54
2018-03-29T20:02:15.341Z,94485.61
2018-03-29T20:04:45.055Z,94491.14
2018-03-29T20:07:14.813Z,94485.00
2018-03-29T20:09:44.540Z,94491.67
2018-03-29T20:12:14.293Z,94500.30
2018-03-29T20:14:44.010Z,94509.39
2018-03-29T20:17:13.850Z,94509.61
2018-03-29T20:19:43.400Z,94507.14
2018-03-29T20:22:13.162Z,94504.77
2018-03-29T20:24:42.713Z,94503.91
2018-03-29T20:27:12.422Z,94494.27
2018-03-29T20:29:42.187Z,94498.45
2018-03-29T20:32:11.911Z,94502.72
2018-03-29T20:34:41.711Z,94497.52
2018-03-29T20:37:11.469Z,94506.07
2018-03-29T20:39:41.239Z,94501.97
2018-03-29T20:42:10.997Z,94493.05
2018-03-29T20:44:40.713Z,94503.50
2018-03-29T20:47:10.482Z,94497.14
2018-03-29T20:49:40.198Z,94503.22
2018-03-29T20:52:09.952Z,94524.12
2018-03-29T20:54:39.805Z,94503.30
2018-03-29T20:57:09.561Z,94496.70
2018-03-29T20:59:39.272Z,94494.69
2018-03-29T21:02:08.704Z,94505.89
2018-03-29T21:04:38.224Z,94508.19
2018-03-29T21:07:07.986Z,94507.63
2018-03-29T21:09:37.701Z,94516.74
2018-03-29T21:12:07.465Z,94517.41
2018-03-29T21:14:37.179Z,94521.01
2018-03-29T21:17:06.892Z,94522.33
2018-03-29T21:19:36.657Z,94524.18
2018-03-29T21:22:06.581Z,94519.59
2018-03-29T21:24:36.333Z,94527.52
2018-03-29T21:27:06.044Z,94501.63
2018-03-29T21:29:35.808Z,94523.68
2018-03-29T21:32:05.537Z,94520.16
2018-03-29T21:34:35.334Z,94524.37
2018-03-29T21:37:04.792Z,94529.84
2018-03-29T21:39:34.512Z,94537.70
2018-03-29T21:42:03.946Z,94536.66
2018-03-29T21:44:33.672Z,94539.69
2018-03-29T21:47:03.486Z,94539.86
2018-03-29T21:49:33.260Z,94546.27
2018-03-29T21:52:03.200Z,94543.95
2018-03-29T21:54:32.925Z,94548.80
2018-03-29T21:57:02.675Z,94552.27
2018-03-29T21:59:32.416Z,94555.30
2018-03-29T22:02:02.182Z,94551.09
2018-03-29T22:04:31.920Z,94555.38
2018-03-29T22:07:01.689Z,94559.70
2018-03-29T22:09:31.444Z,94554.19
2018-03-29T22:12:01.196Z,94567.61
2018-03-29T22:14:30.594Z,94573.33
2018-03-29T22:17:00.094Z,94572.19
2018-03-29T22:19:29.909Z,94579.66
2018-03-29T22:21:59.803Z,94586.34
2018-03-29T22:24:29.569Z,94566.41
2018-03-29T22:26:59.287Z,94583.75
2018-03-29T22:29:29.048Z,94583.14
2018-03-29T22:31:58.790Z,94579.34
2018-03-29T22:34:28.562Z,94576.13
2018-03-29T22:36:58.494Z,94580.03
2018-03-29T22:39:28.245Z,94584.39
2018-03-29T22:41:58.012Z,94563.41
2018-03-29T22:44:27.725Z,94591.89
2018-03-29T22:46:57.500Z,94595.16
2018-03-29T22:49:27.266Z,94588.34
2018-03-29T22:51:56.986Z,94587.19
2018-03-29T22:54:26.757Z,94602.52
2018-03-29T22:56:56.235Z,94587.53
2018-03-29T22:59:25.993Z,94580.44
2018-03-29T23:01:55.494Z,94613.52
2018-03-29T23:04:25.362Z,94598.99
2018-03-29T23:06:55.082Z,94606.54
2018-03-29T23:09:24.830Z,94608.48
2018-03-29T23:11:54.602Z,94611.58
2018-03-29T23:14:24.393Z,94616.56
2018-03-29T23:16:54.152Z,94620.00
2018-03-29T23:19:23.877Z,94634.20
2018-03-29T23:21:53.637Z,94582.92
2018-03-29T23:24:23.369Z,94619.25
2018-03-29T23:26:52.870Z,94627.23
2018-03-29T23:29:22.631Z,94623.60
2018-03-29T23:31:52.352Z,94635.95
2018-03-29T23:34:22.113Z,94628.05
2018-03-29T23:36:51.904Z,94628.79
2018-03-29T23:39:21.682Z,94621.73
2018-03-29T23:41:51.499Z,94638.55
2018-03-29T23:44:21.265Z,94634.11
2018-03-29T23:46:50.980Z,94634.43
2018-03-29T23:49:20.754Z,94631.20
2018-03-29T23:51:50.490Z,94631.32
2018-03-29T23:54:20.245Z,94637.80
2018-03-29T23:56:49.960Z,94644.95
2018-03-29T23:59:19.477Z,94644.27
